Time;durP1;ratioP1;P1;durP2;ratioP2;P2;SDS_P1;SDS_P2;PMS_P1;PMS_P2;Temp;Humidity;BMP_temperature;BMP_pressure;BME280_temperature;BME280_humidity;BME280_pressure;Samples;Min_cycle;Max_cycle;Signal;HPM_P1;HPM_P2
2024/01/28 00:01:51;;;;;;;4.35;2.67;;;;;;;;;;5024575;28;20124;-66
2024/01/28 00:04:17;;;;;;;4.57;2.67;;;;;;;;;;5023680;28;20042;-60
2024/01/28 00:06:43;;;;;;;4.38;2.83;;;;;;;;;;5026779;28;20109;-70
2024/01/28 00:09:08;;;;;;;4.60;2.55;;;;;;;;;;5029687;28;20037;-58
2024/01/28 00:11:33;;;;;;;3.42;2.40;;;;;;;;;;5024139;28;20074;-62
2024/01/28 00:13:59;;;;;;;4.68;2.72;;;;;;;;;;5024763;28;20037;-69
2024/01/28 00:16:24;;;;;;;5.13;2.33;;;;;;;;;;5025478;28;20507;-66
2024/01/28 00:18:49;;;;;;;4.18;2.42;;;;;;;;;;5021136;28;20041;-66
2024/01/28 00:21:15;;;;;;;4.03;2.30;;;;;;;;;;5024025;28;20030;-58
2024/01/28 00:23:40;;;;;;;3.85;2.40;;;;;;;;;;5027039;28;20049;-65
2024/01/28 00:26:07;;;;;;;4.97;2.92;;;;;;;;;;5023791;28;20033;-69
2024/01/28 00:28:38;;;;;;;4.30;2.50;;;;;;;;;;5025296;28;20087;-63
2024/01/28 00:31:07;;;;;;;3.22;1.88;;;;;;;;;;5025573;28;20099;-67
2024/01/28 00:33:32;;;;;;;3.90;2.67;;;;;;;;;;5022547;28;20061;-59
2024/01/28 00:35:58;;;;;;;3.75;2.30;;;;;;;;;;5023047;28;20344;-66
2024/01/28 00:38:23;;;;;;;4.03;2.50;;;;;;;;;;5027624;28;20573;-64
2024/01/28 00:40:48;;;;;;;3.92;2.30;;;;;;;;;;5021207;28;20541;-69
2024/01/28 00:43:14;;;;;;;4.18;2.17;;;;;;;;;;5019908;28;20025;-68
2024/01/28 00:45:39;;;;;;;3.88;2.28;;;;;;;;;;5010410;28;20034;-64
2024/01/28 00:48:04;;;;;;;3.70;2.30;;;;;;;;;;5024625;28;20482;-60
2024/01/28 00:50:30;;;;;;;4.32;2.45;;;;;;;;;;5024946;28;20037;-64
2024/01/28 00:52:55;;;;;;;3.60;2.42;;;;;;;;;;5022840;28;20033;-64
2024/01/28 00:55:20;;;;;;;3.20;2.10;;;;;;;;;;5024206;28;20125;-66
2024/01/28 00:57:46;;;;;;;3.40;1.88;;;;;;;;;;5020936;28;20041;-61
2024/01/28 01:03:14;;;;;;;3.53;2.35;;;;;;;;;;5008643;28;20107;-60
2024/01/28 01:05:41;;;;;;;2.85;2.03;;;;;;;;;;5010801;28;20053;-59
2024/01/28 01:08:10;;;;;;;3.20;2.05;;;;;;;;;;5016122;28;20139;-64
2024/01/28 01:10:36;;;;;;;3.53;2.15;;;;;;;;;;5017175;28;20029;-61
2024/01/28 01:13:01;;;;;;;3.08;1.92;;;;;;;;;;5018287;28;20041;-65
2024/01/28 01:15:26;;;;;;;2.78;1.77;;;;;;;;;;5022078;28;20084;-64
2024/01/28 01:17:51;;;;;;;3.30;2.03;;;;;;;;;;5024464;28;20685;-61
2024/01/28 01:20:17;;;;;;;2.85;2.05;;;;;;;;;;5012732;28;20029;-64
2024/01/28 01:22:43;;;;;;;2.70;1.90;;;;;;;;;;5019788;28;20026;-58
2024/01/28 01:25:09;;;;;;;3.15;1.98;;;;;;;;;;5021663;28;20033;-58
2024/01/28 01:27:34;;;;;;;3.10;2.10;;;;;;;;;;5021930;28;20091;-62
2024/01/28 01:30:00;;;;;;;3.25;1.92;;;;;;;;;;5026199;28;20033;-57
2024/01/28 01:32:25;;;;;;;3.35;2.03;;;;;;;;;;5021471;28;20034;-57
2024/01/28 01:34:50;;;;;;;3.28;2.08;;;;;;;;;;5026778;28;20033;-59
2024/01/28 01:37:15;;;;;;;4.30;2.03;;;;;;;;;;5028417;28;20033;-57
2024/01/28 01:39:41;;;;;;;2.92;1.95;;;;;;;;;;5026980;28;20433;-58
2024/01/28 01:42:06;;;;;;;2.42;1.60;;;;;;;;;;5026903;28;20060;-61
2024/01/28 01:44:31;;;;;;;3.55;2.13;;;;;;;;;;5024667;28;20021;-58
2024/01/28 01:46:57;;;;;;;2.97;1.95;;;;;;;;;;5010701;28;20079;-61
2024/01/28 01:49:22;;;;;;;3.25;1.73;;;;;;;;;;5029470;28;20513;-59
2024/01/28 01:51:47;;;;;;;3.17;1.90;;;;;;;;;;5026917;28;20136;-61
2024/01/28 01:54:13;;;;;;;3.60;2.05;;;;;;;;;;5019641;28;20491;-61
2024/01/28 01:56:38;;;;;;;4.22;2.03;;;;;;;;;;5004329;28;20223;-60
2024/01/28 01:59:04;;;;;;;2.65;1.67;;;;;;;;;;5003150;28;20475;-62
2024/01/28 02:01:29;;;;;;;3.03;1.67;;;;;;;;;;5022244;28;20072;-62
2024/01/28 02:03:57;;;;;;;2.83;1.70;;;;;;;;;;5005732;28;20128;-61
2024/01/28 02:06:22;;;;;;;3.70;2.00;;;;;;;;;;5023431;28;20175;-62
2024/01/28 02:08:48;;;;;;;2.78;1.70;;;;;;;;;;5024790;28;20061;-63
2024/01/28 02:11:13;;;;;;;3.72;1.75;;;;;;;;;;5036732;28;20124;-62
2024/01/28 02:13:39;;;;;;;2.78;1.70;;;;;;;;;;5024925;28;20530;-62
2024/01/28 02:16:04;;;;;;;2.72;1.50;;;;;;;;;;5008482;28;20449;-62
2024/01/28 02:18:31;;;;;;;2.83;1.80;;;;;;;;;;5023169;28;20048;-63
2024/01/28 02:21:01;;;;;;;2.97;1.70;;;;;;;;;;5010452;28;20045;-62
2024/01/28 02:23:26;;;;;;;;;;;;;;;;;;5029440;28;20087;-63
2024/01/28 02:25:51;;;;;;;2.80;1.77;;;;;;;;;;5011918;28;19913;-63
2024/01/28 02:28:17;;;;;;;3.30;1.77;;;;;;;;;;5026986;28;20597;-64
2024/01/28 02:30:42;;;;;;;3.28;2.10;;;;;;;;;;5029010;28;20053;-62
2024/01/28 02:33:08;;;;;;;2.60;1.52;;;;;;;;;;5028527;28;20029;-61
2024/01/28 02:35:33;;;;;;;2.28;1.48;;;;;;;;;;5022070;28;20046;-62
2024/01/28 02:37:58;;;;;;;2.83;1.70;;;;;;;;;;5013055;28;20052;-62
2024/01/28 02:40:24;;;;;;;2.50;1.60;;;;;;;;;;5028298;28;20029;-62
2024/01/28 02:42:49;;;;;;;3.08;1.60;;;;;;;;;;5027929;28;20050;-61
2024/01/28 02:45:14;;;;;;;2.38;1.63;;;;;;;;;;5026990;28;20112;-62
2024/01/28 02:47:40;;;;;;;3.35;1.60;;;;;;;;;;5027245;28;20034;-61
2024/01/28 02:50:05;;;;;;;2.20;1.33;;;;;;;;;;5028637;28;20095;-62
2024/01/28 02:52:31;;;;;;;2.83;1.80;;;;;;;;;;5026549;28;20033;-63
2024/01/28 02:54:56;;;;;;;2.30;1.45;;;;;;;;;;5027642;28;20037;-61
2024/01/28 02:57:21;;;;;;;2.22;1.33;;;;;;;;;;5024179;28;20029;-60
2024/01/28 02:59:47;;;;;;;2.15;1.40;;;;;;;;;;5030251;28;20095;-62
2024/01/28 03:02:12;;;;;;;2.17;1.58;;;;;;;;;;5027880;28;20030;-61
2024/01/28 03:04:37;;;;;;;2.13;1.38;;;;;;;;;;5027380;28;20537;-61
2024/01/28 03:07:03;;;;;;;2.20;1.33;;;;;;;;;;5026769;28;20038;-61
2024/01/28 03:09:28;;;;;;;1.90;1.15;;;;;;;;;;5027085;28;20034;-62
2024/01/28 03:11:54;;;;;;;2.60;1.70;;;;;;;;;;5027396;28;20077;-60
2024/01/28 03:14:19;;;;;;;2.22;1.38;;;;;;;;;;5026837;28;20029;-61
2024/01/28 03:16:46;;;;;;;2.63;1.55;;;;;;;;;;5026592;28;20497;-62
2024/01/28 03:19:11;;;;;;;2.38;1.52;;;;;;;;;;5019205;28;20195;-61
2024/01/28 03:21:36;;;;;;;2.38;1.52;;;;;;;;;;5026324;28;20181;-62
2024/01/28 03:24:02;;;;;;;2.08;1.50;;;;;;;;;;5025683;28;20095;-62
2024/01/28 03:26:27;;;;;;;2.70;1.65;;;;;;;;;;5024738;28;20090;-62
2024/01/28 03:28:52;;;;;;;2.50;1.42;;;;;;;;;;5023433;28;20048;-63
2024/01/28 03:31:18;;;;;;;2.97;1.25;;;;;;;;;;5025543;28;20038;-62
2024/01/28 03:33:44;;;;;;;2.30;1.13;;;;;;;;;;5025161;28;20026;-63
2024/01/28 03:36:10;;;;;;;1.92;1.20;;;;;;;;;;5024832;28;20092;-62
2024/01/28 03:38:35;;;;;;;2.08;1.20;;;;;;;;;;5026024;28;20057;-61
2024/01/28 03:41:01;;;;;;;2.70;1.50;;;;;;;;;;5025416;28;20072;-61
2024/01/28 03:43:26;;;;;;;1.73;1.00;;;;;;;;;;5025371;28;20528;-61
2024/01/28 03:45:52;;;;;;;2.33;1.30;;;;;;;;;;5025442;28;20597;-61
2024/01/28 03:48:17;;;;;;;2.40;1.38;;;;;;;;;;5024610;28;20033;-58
2024/01/28 03:50:42;;;;;;;2.88;1.25;;;;;;;;;;5027466;28;20075;-62
2024/01/28 03:53:08;;;;;;;2.55;1.20;;;;;;;;;;5024906;28;20164;-60
2024/01/28 03:55:33;;;;;;;1.92;1.05;;;;;;;;;;5024826;28;20050;-60
2024/01/28 03:57:58;;;;;;;2.45;1.25;;;;;;;;;;5019846;28;20092;-60
2024/01/28 04:00:28;;;;;;;2.20;1.10;;;;;;;;;;5022971;28;20037;-58
2024/01/28 04:02:54;;;;;;;2.33;1.30;;;;;;;;;;5025093;28;20029;-57
2024/01/28 04:05:19;;;;;;;2.78;1.27;;;;;;;;;;5024859;28;20124;-61
2024/01/28 04:07:44;;;;;;;1.83;0.93;;;;;;;;;;5023897;28;20030;-60
2024/01/28 04:10:13;;;;;;;1.90;1.17;;;;;;;;;;5025402;28;20037;-61
2024/01/28 04:12:38;;;;;;;2.00;1.00;;;;;;;;;;5024928;28;20033;-61
2024/01/28 04:15:04;;;;;;;2.25;1.15;;;;;;;;;;5025218;28;20041;-61
2024/01/28 04:17:30;;;;;;;2.20;1.30;;;;;;;;;;5025501;28;20048;-60
2024/01/28 04:19:55;;;;;;;1.85;1.10;;;;;;;;;;5022811;28;20124;-61
2024/01/28 04:22:20;;;;;;;1.88;1.20;;;;;;;;;;5025116;28;20037;-60
2024/01/28 04:24:45;;;;;;;2.40;1.20;;;;;;;;;;5024424;28;20088;-61
2024/01/28 04:27:11;;;;;;;2.80;1.05;;;;;;;;;;5024040;28;20147;-58
2024/01/28 04:29:36;;;;;;;2.20;1.13;;;;;;;;;;5022076;28;20040;-61
2024/01/28 04:32:01;;;;;;;2.85;1.27;;;;;;;;;;5025344;28;20504;-62
2024/01/28 04:34:27;;;;;;;1.90;1.17;;;;;;;;;;5024418;28;20048;-61
2024/01/28 04:36:52;;;;;;;1.90;1.10;;;;;;;;;;5024312;28;20099;-62
2024/01/28 04:39:18;;;;;;;2.33;0.98;;;;;;;;;;5024690;28;20517;-62
2024/01/28 04:41:43;;;;;;;2.90;1.20;;;;;;;;;;5024161;28;20043;-62
2024/01/28 04:44:09;;;;;;;1.88;1.30;;;;;;;;;;5023594;28;20039;-60
2024/01/28 04:46:34;;;;;;;1.50;1.10;;;;;;;;;;5024173;28;20045;-62
2024/01/28 04:49:02;;;;;;;1.73;1.15;;;;;;;;;;5023597;28;20033;-62
2024/01/28 04:51:29;;;;;;;2.40;1.15;;;;;;;;;;5024511;28;20034;-60
2024/01/28 04:53:54;;;;;;;1.52;1.00;;;;;;;;;;5024494;28;20128;-62
2024/01/28 04:56:20;;;;;;;1.88;1.00;;;;;;;;;;5025345;28;20124;-62
2024/01/28 04:58:45;;;;;;;1.92;1.17;;;;;;;;;;5019008;28;20038;-62
2024/01/28 05:01:10;;;;;;;1.92;0.98;;;;;;;;;;5024238;28;20572;-61
2024/01/28 05:03:36;;;;;;;1.90;1.02;;;;;;;;;;5024676;28;20096;-59
2024/01/28 05:06:04;;;;;;;1.80;1.02;;;;;;;;;;5024168;28;20543;-62
2024/01/28 05:08:30;;;;;;;1.77;1.10;;;;;;;;;;5022710;28;20034;-60
2024/01/28 05:10:55;;;;;;;2.15;1.20;;;;;;;;;;5023817;28;20149;-59
2024/01/28 05:13:21;;;;;;;1.90;1.00;;;;;;;;;;5015549;28;20506;-63
2024/01/28 05:15:46;;;;;;;1.92;1.17;;;;;;;;;;5020973;28;20049;-65
2024/01/28 05:18:12;;;;;;;2.35;0.95;;;;;;;;;;5022847;28;20034;-63
2024/01/28 05:20:37;;;;;;;2.15;1.33;;;;;;;;;;5021251;28;20037;-68
2024/01/28 05:23:03;;;;;;;1.95;1.02;;;;;;;;;;5024921;28;20040;-69
2024/01/28 05:25:28;;;;;;;1.63;0.95;;;;;;;;;;5022974;28;20025;-66
2024/01/28 05:27:54;;;;;;;1.70;0.95;;;;;;;;;;5022022;28;20489;-72
2024/01/28 05:30:19;;;;;;;1.65;1.02;;;;;;;;;;5004416;28;20044;-72
2024/01/28 05:32:44;;;;;;;2.75;1.10;;;;;;;;;;5020425;28;20029;-71
2024/01/28 05:35:10;;;;;;;2.22;1.00;;;;;;;;;;5021978;28;20038;-67
2024/01/28 05:37:37;;;;;;;2.33;1.13;;;;;;;;;;5021924;28;20710;-72
2024/01/28 05:40:02;;;;;;;1.48;0.77;;;;;;;;;;5024982;28;20034;-73
2024/01/28 05:42:28;;;;;;;1.73;0.85;;;;;;;;;;5024443;28;20127;-71
2024/01/28 05:44:53;;;;;;;1.77;0.98;;;;;;;;;;5023692;28;20030;-70
2024/01/28 05:47:18;;;;;;;2.17;1.20;;;;;;;;;;5021415;28;20049;-71
2024/01/28 05:49:44;;;;;;;1.75;0.75;;;;;;;;;;5025839;28;20471;-72
2024/01/28 05:52:09;;;;;;;2.00;0.93;;;;;;;;;;5020194;28;20411;-70
2024/01/28 05:54:36;;;;;;;1.88;0.90;;;;;;;;;;5025934;28;20041;-65
2024/01/28 05:57:02;;;;;;;2.38;0.95;;;;;;;;;;5028776;28;20052;-68
2024/01/28 05:59:27;;;;;;;1.35;0.68;;;;;;;;;;5020207;28;20030;-62
2024/01/28 06:01:52;;;;;;;1.38;0.80;;;;;;;;;;5023993;28;20029;-69
2024/01/28 06:04:18;;;;;;;1.65;0.90;;;;;;;;;;5028101;28;20055;-61
2024/01/28 06:06:43;;;;;;;1.20;0.68;;;;;;;;;;5027977;28;21000;-72
2024/01/28 06:09:11;;;;;;;1.45;0.75;;;;;;;;;;5028663;28;20042;-68
2024/01/28 06:11:37;;;;;;;1.60;0.90;;;;;;;;;;5025779;28;20116;-67
2024/01/28 06:14:02;;;;;;;1.90;0.88;;;;;;;;;;5026641;28;20116;-60
2024/01/28 06:16:28;;;;;;;1.92;1.00;;;;;;;;;;5025962;28;20049;-72
2024/01/28 06:18:53;;;;;;;1.67;0.80;;;;;;;;;;5025712;28;20037;-70
2024/01/28 06:21:18;;;;;;;1.60;0.80;;;;;;;;;;5027526;28;20112;-63
2024/01/28 06:23:44;;;;;;;2.45;1.00;;;;;;;;;;5025497;28;20037;-68
2024/01/28 06:26:09;;;;;;;1.60;0.80;;;;;;;;;;5018666;28;20111;-71
2024/01/28 06:28:35;;;;;;;1.83;0.98;;;;;;;;;;5006329;28;20092;-65
2024/01/28 06:31:00;;;;;;;2.28;1.00;;;;;;;;;;5017880;28;20033;-63
2024/01/28 06:33:25;;;;;;;1.48;0.90;;;;;;;;;;5019324;28;20045;-68
2024/01/28 06:35:51;;;;;;;1.33;0.80;;;;;;;;;;5016988;28;20045;-64
2024/01/28 06:38:17;;;;;;;2.55;1.02;;;;;;;;;;5017802;28;20479;-64
2024/01/28 06:40:43;;;;;;;1.38;0.70;;;;;;;;;;5018029;28;20404;-71
2024/01/28 06:43:08;;;;;;;1.38;0.90;;;;;;;;;;5025487;28;20053;-71
2024/01/28 06:45:33;;;;;;;1.40;0.80;;;;;;;;;;5021727;28;20167;-67
2024/01/28 06:47:58;;;;;;;1.73;0.70;;;;;;;;;;5024974;28;20079;-65
2024/01/28 06:50:24;;;;;;;1.67;0.80;;;;;;;;;;5022555;28;20041;-65
2024/01/28 06:52:49;;;;;;;2.42;0.90;;;;;;;;;;5020124;28;20151;-62
2024/01/28 06:55:14;;;;;;;1.83;0.70;;;;;;;;;;5028136;28;20095;-68
2024/01/28 06:57:40;;;;;;;2.60;0.80;;;;;;;;;;5012446;28;20048;-64
2024/01/28 07:00:09;;;;;;;2.03;0.80;;;;;;;;;;5018136;28;20050;-67
2024/01/28 07:02:35;;;;;;;1.60;0.85;;;;;;;;;;5023702;28;20567;-65
2024/01/28 07:05:01;;;;;;;1.95;0.90;;;;;;;;;;5025557;28;20629;-76
2024/01/28 07:07:26;;;;;;;1.08;0.70;;;;;;;;;;5031407;28;20041;-59
2024/01/28 07:09:51;;;;;;;2.30;0.70;;;;;;;;;;5032277;28;20087;-73
2024/01/28 07:12:17;;;;;;;1.75;0.80;;;;;;;;;;5014605;28;20180;-67
2024/01/28 07:14:42;;;;;;;1.70;0.73;;;;;;;;;;5021852;28;20411;-74
2024/01/28 07:17:08;;;;;;;1.88;0.98;;;;;;;;;;5029722;28;20052;-66
2024/01/28 07:19:35;;;;;;;2.50;0.90;;;;;;;;;;5028844;28;20029;-70
2024/01/28 07:22:01;;;;;;;1.95;0.82;;;;;;;;;;5023062;28;20033;-77
2024/01/28 07:24:26;;;;;;;1.30;0.80;;;;;;;;;;5026441;28;20041;-74
2024/01/28 07:26:51;;;;;;;2.40;0.90;;;;;;;;;;5028175;28;20038;-72
2024/01/28 07:29:16;;;;;;;1.27;0.68;;;;;;;;;;5018249;28;20500;-75
2024/01/28 07:31:42;;;;;;;3.00;1.02;;;;;;;;;;5023410;28;20084;-73
2024/01/28 07:34:07;;;;;;;2.35;0.90;;;;;;;;;;5032736;28;20029;-72
2024/01/28 07:36:32;;;;;;;2.15;0.98;;;;;;;;;;5031445;28;20041;-75
2024/01/28 07:38:58;;;;;;;1.60;0.80;;;;;;;;;;5026163;28;20034;-66
2024/01/28 07:41:23;;;;;;;2.83;0.80;;;;;;;;;;5026890;28;20034;-65
2024/01/28 07:43:49;;;;;;;1.98;1.00;;;;;;;;;;5027086;28;20143;-72
2024/01/28 07:46:14;;;;;;;1.63;0.60;;;;;;;;;;5026882;28;20030;-65
2024/01/28 07:48:40;;;;;;;1.42;0.50;;;;;;;;;;5019265;28;20033;-70
2024/01/28 07:51:05;;;;;;;1.80;0.90;;;;;;;;;;5028595;28;20533;-75
2024/01/28 07:53:30;;;;;;;1.30;0.88;;;;;;;;;;5024966;28;20041;-74
2024/01/28 07:55:55;;;;;;;1.40;0.80;;;;;;;;;;5023739;28;20523;-67
2024/01/28 07:58:21;;;;;;;1.60;0.80;;;;;;;;;;5025255;28;20087;-64
2024/01/28 08:00:46;;;;;;;1.25;0.80;;;;;;;;;;5021013;28;20103;-72
2024/01/28 08:03:11;;;;;;;1.83;0.93;;;;;;;;;;5024067;28;20037;-72
2024/01/28 08:05:37;;;;;;;1.50;0.80;;;;;;;;;;5024357;28;20083;-65
2024/01/28 08:08:02;;;;;;;1.55;0.70;;;;;;;;;;5027335;28;20092;-72
2024/01/28 08:10:27;;;;;;;1.67;0.95;;;;;;;;;;5011223;28;20111;-74
2024/01/28 08:12:53;;;;;;;2.28;1.02;;;;;;;;;;5024745;28;20084;-66
2024/01/28 08:15:20;;;;;;;1.48;0.60;;;;;;;;;;5023689;28;20061;-75
2024/01/28 08:17:45;;;;;;;1.30;0.80;;;;;;;;;;5007431;28;20069;-75
2024/01/28 08:20:10;;;;;;;1.48;0.80;;;;;;;;;;5026273;28;20049;-76
2024/01/28 08:22:37;;;;;;;1.38;0.57;;;;;;;;;;5023554;28;20040;-70
2024/01/28 08:25:02;;;;;;;1.73;0.80;;;;;;;;;;5024548;28;20033;-71
2024/01/28 08:27:30;;;;;;;1.38;0.77;;;;;;;;;;5027767;28;20040;-69
2024/01/28 08:29:55;;;;;;;3.40;0.70;;;;;;;;;;5019267;28;20107;-72
2024/01/28 08:32:20;;;;;;;1.52;0.75;;;;;;;;;;5023644;28;20041;-64
2024/01/28 08:34:48;;;;;;;2.30;1.00;;;;;;;;;;5001850;28;20029;-76
2024/01/28 08:37:14;;;;;;;1.60;0.80;;;;;;;;;;4996734;28;20034;-76
2024/01/28 08:39:39;;;;;;;1.30;0.70;;;;;;;;;;5021905;28;20407;-64
2024/01/28 08:42:05;;;;;;;2.05;0.80;;;;;;;;;;5022686;28;20068;-75
2024/01/28 08:44:30;;;;;;;1.50;0.80;;;;;;;;;;5023239;28;20407;-76
2024/01/28 08:46:56;;;;;;;2.10;1.00;;;;;;;;;;5023584;28;20037;-60
2024/01/28 08:49:21;;;;;;;2.80;0.75;;;;;;;;;;5022758;28;20044;-64
2024/01/28 08:51:46;;;;;;;0.90;0.55;;;;;;;;;;5022437;28;20041;-62
2024/01/28 08:54:12;;;;;;;1.88;0.80;;;;;;;;;;5023740;28;20034;-61
2024/01/28 08:56:37;;;;;;;2.03;0.90;;;;;;;;;;5007399;28;20046;-72
2024/01/28 08:59:02;;;;;;;1.30;0.68;;;;;;;;;;5021552;28;20037;-73
2024/01/28 09:01:28;;;;;;;1.25;0.68;;;;;;;;;;5016208;28;20389;-66
2024/01/28 09:03:53;;;;;;;1.75;0.88;;;;;;;;;;5018883;28;20029;-76
2024/01/28 09:06:19;;;;;;;1.55;0.75;;;;;;;;;;5022475;28;20104;-66
2024/01/28 09:08:44;;;;;;;1.98;0.88;;;;;;;;;;5024196;28;20069;-73
2024/01/28 09:11:09;;;;;;;1.75;0.90;;;;;;;;;;5024362;28;20467;-60
2024/01/28 09:13:35;;;;;;;2.00;0.98;;;;;;;;;;5024129;28;20495;-74
2024/01/28 09:16:00;;;;;;;1.17;0.57;;;;;;;;;;5024383;28;20037;-69
2024/01/28 09:18:28;;;;;;;1.92;0.90;;;;;;;;;;5024955;28;20038;-63
2024/01/28 09:20:53;;;;;;;1.50;0.80;;;;;;;;;;5006293;28;20124;-62
2024/01/28 09:23:19;;;;;;;1.52;0.88;;;;;;;;;;5016185;28;20110;-65
2024/01/28 09:25:44;;;;;;;1.77;0.98;;;;;;;;;;5023005;28;20037;-72
2024/01/28 09:28:10;;;;;;;1.83;0.90;;;;;;;;;;5019571;28;20092;-65
2024/01/28 09:30:35;;;;;;;1.27;0.60;;;;;;;;;;5006518;28;20049;-73
2024/01/28 09:33:01;;;;;;;1.30;0.80;;;;;;;;;;4991891;28;20547;-67
2024/01/28 09:35:27;;;;;;;2.20;1.00;;;;;;;;;;5019299;28;20068;-65
2024/01/28 09:37:54;;;;;;;2.30;1.00;;;;;;;;;;5019722;28;20045;-72
2024/01/28 09:40:19;;;;;;;2.30;0.80;;;;;;;;;;5025956;28;20102;-70
2024/01/28 09:42:50;;;;;;;1.30;0.70;;;;;;;;;;5027540;28;20124;-60
2024/01/28 09:45:16;;;;;;;1.85;0.82;;;;;;;;;;5027500;28;20022;-77
2024/01/28 09:47:41;;;;;;;3.25;0.90;;;;;;;;;;5024770;28;20857;-74
2024/01/28 09:50:06;;;;;;;1.90;0.82;;;;;;;;;;5024931;28;20623;-74
2024/01/28 09:52:32;;;;;;;2.00;0.65;;;;;;;;;;5022174;28;20028;-60
2024/01/28 09:54:57;;;;;;;1.83;0.90;;;;;;;;;;5015825;28;20146;-66
2024/01/28 09:57:23;;;;;;;4.00;1.00;;;;;;;;;;5020681;28;20038;-75
2024/01/28 09:59:48;;;;;;;1.27;0.85;;;;;;;;;;4982407;28;20028;-74
2024/01/28 10:02:14;;;;;;;1.70;0.90;;;;;;;;;;5012495;28;20029;-69
2024/01/28 10:04:40;;;;;;;1.40;0.80;;;;;;;;;;5031562;28;20052;-66
2024/01/28 10:07:07;;;;;;;1.30;0.60;;;;;;;;;;5028490;28;20044;-67
2024/01/28 10:09:32;;;;;;;2.35;1.13;;;;;;;;;;5009515;28;20029;-68
2024/01/28 10:12:00;;;;;;;2.15;0.95;;;;;;;;;;5024947;28;20010;-62
2024/01/28 10:14:26;;;;;;;3.05;1.15;;;;;;;;;;5024888;28;20021;-71
2024/01/28 10:16:52;;;;;;;3.13;0.70;;;;;;;;;;5022504;28;20110;-73
2024/01/28 10:19:18;;;;;;;2.00;1.00;;;;;;;;;;5020530;28;20030;-76
2024/01/28 10:21:43;;;;;;;2.50;1.10;;;;;;;;;;5022172;28;20553;-75
2024/01/28 10:24:11;;;;;;;1.50;0.80;;;;;;;;;;5025102;28;20585;-72
2024/01/28 10:26:37;;;;;;;1.55;0.63;;;;;;;;;;5023598;28;20041;-66
2024/01/28 10:29:02;;;;;;;2.05;1.02;;;;;;;;;;5019440;28;20038;-74
2024/01/28 10:31:27;;;;;;;2.08;0.82;;;;;;;;;;5019814;28;20032;-64
2024/01/28 10:33:53;;;;;;;2.17;1.20;;;;;;;;;;5021743;28;20136;-74
2024/01/28 10:36:18;;;;;;;1.58;0.90;;;;;;;;;;5014083;28;20048;-71
2024/01/28 10:38:44;;;;;;;3.35;1.00;;;;;;;;;;5021736;28;20705;-74
2024/01/28 10:41:10;;;;;;;2.35;1.00;;;;;;;;;;5026533;28;20044;-74
2024/01/28 10:43:36;;;;;;;2.42;1.00;;;;;;;;;;5021212;28;20061;-74
2024/01/28 10:46:01;;;;;;;1.83;1.00;;;;;;;;;;5033261;28;20128;-70
2024/01/28 10:48:26;;;;;;;1.67;0.88;;;;;;;;;;5015960;28;20034;-60
2024/01/28 10:50:52;;;;;;;1.95;0.73;;;;;;;;;;5014281;28;20030;-68
2024/01/28 10:53:17;;;;;;;1.58;0.98;;;;;;;;;;5017001;28;20144;-73
2024/01/28 10:55:43;;;;;;;1.55;0.90;;;;;;;;;;5023538;28;20076;-72
2024/01/28 10:58:08;;;;;;;1.90;0.95;;;;;;;;;;5024378;28;20046;-59
2024/01/28 11:00:34;;;;;;;3.33;1.08;;;;;;;;;;5017265;28;20040;-73
2024/01/28 11:03:22;;;;;;;2.10;1.10;;;;;;;;;;5026301;28;20089;-67
2024/01/28 11:05:48;;;;;;;3.88;1.50;;;;;;;;;;5007901;28;20041;-58
2024/01/28 11:08:13;;;;;;;1.80;0.77;;;;;;;;;;5024752;28;20041;-58
2024/01/28 11:10:38;;;;;;;3.47;1.20;;;;;;;;;;5016092;28;20053;-58
2024/01/28 11:13:04;;;;;;;2.63;1.20;;;;;;;;;;5011851;28;20049;-57
2024/01/28 11:15:30;;;;;;;1.90;0.95;;;;;;;;;;5048662;22;20143;-88
2024/01/28 11:17:57;;;;;;;2.47;1.10;;;;;;;;;;5050916;28;20070;-79
2024/01/28 11:23:28;;;;;;;3.67;1.23;;;;;;;;;;5039714;28;20047;-76
2024/01/28 11:25:53;;;;;;;1.70;1.00;;;;;;;;;;5063932;28;20064;-77
2024/01/28 11:28:20;;;;;;;1.90;1.20;;;;;;;;;;5043521;28;20040;-76
2024/01/28 11:30:46;;;;;;;1.48;0.93;;;;;;;;;;5023016;28;20049;-75
2024/01/28 11:33:14;;;;;;;2.90;0.90;;;;;;;;;;5036723;28;20030;-75
2024/01/28 11:35:42;;;;;;;2.03;0.90;;;;;;;;;;5072054;28;20027;-76
2024/01/28 11:38:10;;;;;;;4.40;0.88;;;;;;;;;;5046380;28;20036;-75
2024/01/28 11:40:36;;;;;;;1.88;0.90;;;;;;;;;;5048931;28;20025;-75
2024/01/28 11:43:04;;;;;;;3.75;1.20;;;;;;;;;;5053544;28;20028;-74
2024/01/28 11:45:29;;;;;;;2.83;1.13;;;;;;;;;;5067279;28;20028;-75
2024/01/28 11:47:58;;;;;;;3.30;1.30;;;;;;;;;;5076450;28;20059;-75
2024/01/28 11:50:23;;;;;;;2.63;1.20;;;;;;;;;;5078309;28;20033;-77
2024/01/28 11:52:49;;;;;;;1.80;0.90;;;;;;;;;;5061923;28;20165;-77
2024/01/28 11:55:15;;;;;;;2.50;1.00;;;;;;;;;;5074151;28;20067;-77
2024/01/28 12:00:09;;;;;;;3.00;1.13;;;;;;;;;;4983157;28;20042;-57
2024/01/28 12:02:38;;;;;;;2.67;1.15;;;;;;;;;;4991708;28;20041;-58
2024/01/28 12:05:04;;;;;;;1.97;1.07;;;;;;;;;;4980456;28;20030;-56
2024/01/28 12:07:33;;;;;;;3.03;1.02;;;;;;;;;;4992454;28;20324;-62
2024/01/28 12:10:02;;;;;;;2.58;1.23;;;;;;;;;;4992699;28;20046;-57
2024/01/28 12:12:28;;;;;;;2.53;0.90;;;;;;;;;;4993472;28;20033;-58
2024/01/28 12:14:53;;;;;;;3.33;1.30;;;;;;;;;;4981283;28;20044;-57
2024/01/28 12:17:18;;;;;;;2.53;1.25;;;;;;;;;;5022271;22;20536;-74
2024/01/28 12:19:44;;;;;;;2.28;1.10;;;;;;;;;;5033259;28;20136;-74
2024/01/28 12:22:12;;;;;;;2.58;1.30;;;;;;;;;;5034865;28;20075;-74
2024/01/28 12:24:43;;;;;;;2.45;1.15;;;;;;;;;;5023772;28;20041;-74
2024/01/28 12:27:09;;;;;;;2.63;0.93;;;;;;;;;;5025475;28;20083;-75
2024/01/28 12:29:34;;;;;;;3.88;1.33;;;;;;;;;;5017080;28;20033;-73
2024/01/28 12:31:59;;;;;;;5.45;1.40;;;;;;;;;;5012866;28;20120;-74
2024/01/28 12:34:26;;;;;;;4.70;1.48;;;;;;;;;;5032661;28;20017;-73
2024/01/28 12:36:54;;;;;;;3.33;1.13;;;;;;;;;;5021042;28;20052;-73
2024/01/28 12:39:19;;;;;;;3.40;1.33;;;;;;;;;;5032419;28;20461;-73
2024/01/28 12:41:44;;;;;;;2.60;1.20;;;;;;;;;;5038785;28;20457;-73
2024/01/28 12:44:09;;;;;;;2.22;1.10;;;;;;;;;;5032238;28;20018;-72
2024/01/28 12:46:35;;;;;;;2.50;1.20;;;;;;;;;;5031175;28;20092;-74
2024/01/28 12:49:00;;;;;;;2.88;1.30;;;;;;;;;;5030700;28;20382;-73
2024/01/28 12:51:25;;;;;;;3.50;1.30;;;;;;;;;;5037887;28;20526;-73
2024/01/28 12:53:52;;;;;;;4.30;1.20;;;;;;;;;;5026767;28;20026;-72
2024/01/28 12:56:17;;;;;;;3.35;1.40;;;;;;;;;;5032278;28;20029;-73
2024/01/28 12:58:43;;;;;;;2.90;1.27;;;;;;;;;;5026358;28;20100;-74
2024/01/28 13:01:09;;;;;;;2.97;1.20;;;;;;;;;;5029810;28;20112;-75
2024/01/28 13:03:37;;;;;;;3.45;1.30;;;;;;;;;;5040753;28;20017;-74
2024/01/28 13:06:02;;;;;;;2.95;1.10;;;;;;;;;;5016424;28;20025;-74
2024/01/28 13:08:28;;;;;;;3.20;1.23;;;;;;;;;;5020241;28;20461;-73
2024/01/28 13:10:54;;;;;;;3.95;1.33;;;;;;;;;;5032494;28;20021;-73
2024/01/28 13:13:19;;;;;;;2.58;1.08;;;;;;;;;;5024716;28;20060;-73
2024/01/28 13:15:45;;;;;;;2.35;1.13;;;;;;;;;;5005893;28;20049;-73
2024/01/28 13:18:10;;;;;;;3.78;1.35;;;;;;;;;;5024477;28;20041;-73
2024/01/28 13:20:35;;;;;;;2.30;1.10;;;;;;;;;;5029166;28;20033;-73
2024/01/28 13:23:01;;;;;;;1.88;1.05;;;;;;;;;;5027924;28;20037;-73
2024/01/28 13:25:26;;;;;;;2.17;1.20;;;;;;;;;;5022303;28;20470;-73
2024/01/28 13:27:51;;;;;;;2.38;1.30;;;;;;;;;;5029568;28;20497;-74
2024/01/28 13:30:17;;;;;;;3.38;1.48;;;;;;;;;;5033514;28;20034;-73
2024/01/28 13:32:46;;;;;;;17.67;2.42;;;;;;;;;;5028048;28;20064;-74
2024/01/28 13:35:11;;;;;;;9.80;1.95;;;;;;;;;;5029453;28;20034;-74
2024/01/28 13:37:37;;;;;;;15.13;2.22;;;;;;;;;;5031071;28;20587;-73
2024/01/28 13:40:02;;;;;;;6.15;1.52;;;;;;;;;;5030947;28;20045;-74
2024/01/28 13:42:28;;;;;;;7.65;1.77;;;;;;;;;;5036928;28;20060;-73
2024/01/28 13:44:53;;;;;;;3.80;1.65;;;;;;;;;;5029039;28;20033;-75
2024/01/28 13:47:18;;;;;;;2.78;1.23;;;;;;;;;;5043916;28;20168;-74
2024/01/28 13:49:44;;;;;;;8.43;1.80;;;;;;;;;;5048974;28;20029;-75
2024/01/28 13:52:10;;;;;;;4.03;1.70;;;;;;;;;;5042233;28;20033;-74
2024/01/28 13:54:35;;;;;;;6.28;1.95;;;;;;;;;;5044020;28;20029;-73
2024/01/28 13:57:02;;;;;;;3.95;1.88;;;;;;;;;;5035322;28;20137;-73
2024/01/28 13:59:29;;;;;;;4.93;1.77;;;;;;;;;;5025327;28;20026;-75
2024/01/28 14:01:54;;;;;;;6.07;1.73;;;;;;;;;;5028205;28;20064;-74
2024/01/28 14:04:20;;;;;;;4.60;2.00;;;;;;;;;;5029939;28;20041;-74
2024/01/28 14:06:45;;;;;;;5.22;1.92;;;;;;;;;;5017608;28;20040;-73
2024/01/28 14:09:11;;;;;;;4.65;1.70;;;;;;;;;;5021075;28;20064;-72
2024/01/28 14:11:36;;;;;;;10.98;2.55;;;;;;;;;;5023585;28;20040;-75
2024/01/28 14:14:02;;;;;;;5.85;1.88;;;;;;;;;;5027960;28;20091;-75
2024/01/28 14:16:27;;;;;;;7.18;1.92;;;;;;;;;;5049716;28;20069;-74
2024/01/28 14:18:52;;;;;;;7.57;1.90;;;;;;;;;;5047609;28;20037;-73
2024/01/28 14:21:18;;;;;;;19.27;2.10;;;;;;;;;;5049579;28;20041;-73
2024/01/28 14:23:43;;;;;;;5.65;1.85;;;;;;;;;;5047411;28;20038;-71
2024/01/28 14:26:08;;;;;;;4.95;1.98;;;;;;;;;;5037025;28;20034;-71
2024/01/28 14:28:34;;;;;;;6.53;2.25;;;;;;;;;;5033082;28;20045;-71
2024/01/28 14:30:59;;;;;;;8.35;2.80;;;;;;;;;;5019377;28;20037;-72
2024/01/28 14:33:24;;;;;;;4.75;2.47;;;;;;;;;;5026325;28;20509;-73
2024/01/28 14:35:50;;;;;;;7.68;2.90;;;;;;;;;;5032013;28;20394;-73
2024/01/28 14:38:15;;;;;;;6.30;2.58;;;;;;;;;;5032083;28;20057;-72
2024/01/28 14:40:41;;;;;;;7.25;3.08;;;;;;;;;;5034102;28;20060;-73
2024/01/28 14:43:06;;;;;;;5.97;2.90;;;;;;;;;;5033604;28;20041;-73